Pagrindinis puslapis
METAR-TAF:

METAR-TAF

Oro uostai :

Jaundė, Kamerūnas

platuma: 03-50N, ilguma: 011-31E, Aukštis: 751 m

Dabartinis oras

Ataskaita buvo paskelbta 31 minutes, ne 01:00 UTC
Vėjas 3 kt iš Pietvakarių, svyruoja nuo Pietų/Pietvakarių ir Vakarų
Temperatūra 24°C
Drėgmė 94%
Slėgis 1014 hPa
Matomumas: 2000 m
rūkana

METAR: FKYS 250100Z 23003KT 210V270 2000 BR NSC 24/23 Q1014 TEMPO 4000 BR

Laikas: 02:31 (01:31 UTC)

Prognozė

Ataskaita buvo paskelbta 2 valandos ir 31 minutes, ne 23:00 UTC
Prognozė galioja nuo 25 metu 00 UTC su 25 metu 24 UTC
Vėjas 3 kt nuo kintamojo kryptimis
Matomumas: 3000 m
Išsisklaidę debesys ne aukštis 600 ft
rūkana
Tapsmas
nuo 25 metu 03 UTC su 25 metu 05 UTC
Matomumas: 2000 m
Su prošvaistėmis ne aukštis 600 ft
rūkana
Tapsmas
nuo 25 metu 08 UTC su 25 metu 10 UTC
Matomumas: 4000 m
Išsisklaidę debesys ne aukštis 1600 ft
migla
Tapsmas
nuo 25 metu 18 UTC su 25 metu 20 UTC
Matomumas: 6000 m

TAF: FKYS 242300Z 2500/2524 VRB03KT 3000 BR SCT006 BECMG 2503/2505 2000 BR BKN006 BECMG 2508/2510 4000 HZ SCT016 BECMG 2518/2520 6000 NSW

Orai ataskaitas ir orų prognozės (METAR, TAF).

turimą stotys yra geltonos ir raudonos taškus žemėlapyje.

Perkelti pele per norėdami pamatyti stoties vardą.

Tada spustelėkite, norėdami matyti oro stebėjimo ir prognozės.

Norėdami pakeisti žemėlapį: spustelėkite ant žalios mygtukų su juodo kryžiaus žemyn,; žalią mygtuką su brūkšneliu, jei norite nutolinti; arba žalių rodyklių gretimoms žemėlapius.


METAR-TAF: